createdAt,value
2023-09-22T00:00:13.067Z,969.66
2023-09-22T00:01:12.888Z,969.68
2023-09-22T00:02:12.904Z,969.74
2023-09-22T00:03:12.865Z,969.84
2023-09-22T00:04:12.927Z,969.89
2023-09-22T00:05:12.843Z,969.89
2023-09-22T00:06:12.935Z,969.93
2023-09-22T00:07:12.833Z,969.97
2023-09-22T00:08:12.826Z,969.99
2023-09-22T00:09:12.806Z,970.03
2023-09-22T00:10:12.833Z,970.02
2023-09-22T00:11:12.788Z,969.95
2023-09-22T00:12:12.803Z,969.88
2023-09-22T00:13:12.756Z,969.80
2023-09-22T00:14:12.764Z,969.76
2023-09-22T00:15:12.761Z,969.76
2023-09-22T00:16:12.771Z,969.82
2023-09-22T00:17:12.719Z,969.91
2023-09-22T00:18:12.737Z,970.01
2023-09-22T00:19:12.713Z,970.09
2023-09-22T00:20:12.699Z,970.12
2023-09-22T00:21:12.669Z,970.16
2023-09-22T00:22:12.674Z,970.16
2023-09-22T00:23:12.656Z,970.15
2023-09-22T00:24:12.653Z,970.15
2023-09-22T00:25:12.626Z,970.15
2023-09-22T00:26:12.610Z,970.14
2023-09-22T00:27:12.636Z,970.09
2023-09-22T00:28:12.695Z,970.05
2023-09-22T00:29:12.580Z,970.06
2023-09-22T00:30:12.606Z,970.11
2023-09-22T00:31:12.691Z,970.14
2023-09-22T00:32:12.777Z,970.11
2023-09-22T00:33:12.653Z,970.07
2023-09-22T00:34:12.570Z,970.03
2023-09-22T00:35:12.523Z,970.00
2023-09-22T00:36:12.531Z,969.96
2023-09-22T00:37:12.493Z,969.90
2023-09-22T00:38:12.497Z,969.81
2023-09-22T00:39:12.484Z,969.72
2023-09-22T00:40:12.474Z,969.70
2023-09-22T00:41:12.444Z,969.76
2023-09-22T00:42:12.470Z,969.89
2023-09-22T00:43:12.425Z,969.94
2023-09-22T00:44:12.460Z,969.97
2023-09-22T00:45:12.404Z,970.00
2023-09-22T00:46:12.456Z,970.00
2023-09-22T00:47:12.383Z,970.00
2023-09-22T00:48:12.394Z,969.96
2023-09-22T00:49:12.359Z,969.96
2023-09-22T00:50:12.393Z,969.97
2023-09-22T00:51:12.346Z,970.01
2023-09-22T00:52:12.394Z,970.01
2023-09-22T00:53:12.309Z,969.97
2023-09-22T00:54:12.337Z,969.99
2023-09-22T00:55:12.306Z,970.02
2023-09-22T00:56:12.311Z,970.06
2023-09-22T00:57:12.267Z,970.05
2023-09-22T00:58:12.292Z,970.04
2023-09-22T00:59:12.250Z,970.05
2023-09-22T01:00:12.276Z,970.06
2023-09-22T01:01:12.230Z,970.09
2023-09-22T01:02:12.295Z,970.10
2023-09-22T01:03:12.269Z,970.09
2023-09-22T01:04:12.309Z,970.08
2023-09-22T01:05:12.202Z,970.05
2023-09-22T01:06:12.209Z,970.02
2023-09-22T01:07:12.170Z,970.01
2023-09-22T01:08:12.166Z,970.07
2023-09-22T01:09:12.141Z,970.13
2023-09-22T01:10:12.157Z,970.17
2023-09-22T01:11:12.121Z,970.19
2023-09-22T01:12:12.147Z,970.18
2023-09-22T01:13:12.092Z,970.24
2023-09-22T01:14:12.110Z,970.25
2023-09-22T01:15:12.072Z,970.26
2023-09-22T01:16:12.118Z,970.27
2023-09-22T01:17:12.060Z,970.25
2023-09-22T01:18:12.059Z,970.23
2023-09-22T01:19:12.031Z,970.19
2023-09-22T01:20:12.048Z,970.16
2023-09-22T01:21:12.005Z,970.11
2023-09-22T01:22:12.031Z,970.09
2023-09-22T01:23:11.988Z,970.08
2023-09-22T01:24:12.003Z,970.06
2023-09-22T01:25:11.960Z,970.07
2023-09-22T01:26:11.985Z,970.05
2023-09-22T01:27:11.944Z,970.02
2023-09-22T01:28:11.976Z,969.98
2023-09-22T01:29:11.971Z,969.95
2023-09-22T01:30:11.935Z,969.92
2023-09-22T01:31:11.933Z,969.88
2023-09-22T01:32:11.910Z,969.86
2023-09-22T01:33:11.881Z,969.83
2023-09-22T01:34:11.903Z,969.83
2023-09-22T01:35:11.880Z,969.79
2023-09-22T01:36:11.858Z,969.75
2023-09-22T01:37:11.828Z,969.74
2023-09-22T01:38:11.834Z,969.73
2023-09-22T01:39:11.888Z,969.70
2023-09-22T01:40:11.834Z,969.68
2023-09-22T01:41:11.798Z,969.68
2023-09-22T01:42:11.825Z,969.72
2023-09-22T01:43:11.766Z,969.76
2023-09-22T01:44:11.832Z,969.79
2023-09-22T01:45:11.770Z,969.85
2023-09-22T01:46:11.858Z,969.89
2023-09-22T01:47:11.720Z,969.91
2023-09-22T01:48:11.737Z,969.91
2023-09-22T01:49:11.696Z,969.93
2023-09-22T01:50:11.746Z,969.92
2023-09-22T01:51:11.676Z,969.91
2023-09-22T01:52:11.713Z,969.87
2023-09-22T01:53:11.667Z,969.87
2023-09-22T01:54:11.659Z,969.86
2023-09-22T01:55:11.632Z,969.89
2023-09-22T01:56:11.649Z,969.94
2023-09-22T01:57:11.630Z,969.98
2023-09-22T01:58:11.632Z,969.99
2023-09-22T01:59:11.591Z,969.99
2023-09-22T02:00:11.652Z,970.00
2023-09-22T02:01:11.597Z,970.02
2023-09-22T02:02:11.585Z,970.05
2023-09-22T02:03:11.719Z,970.09
2023-09-22T02:04:11.726Z,970.09
2023-09-22T02:05:11.656Z,970.10
2023-09-22T02:06:11.544Z,970.12
2023-09-22T02:07:11.518Z,970.14
2023-09-22T02:08:11.530Z,970.14
2023-09-22T02:09:11.477Z,970.14
2023-09-22T02:10:11.517Z,970.15
2023-09-22T02:11:11.464Z,970.18
2023-09-22T02:12:11.474Z,970.22
2023-09-22T02:13:11.434Z,970.25
2023-09-22T02:14:11.484Z,970.27
2023-09-22T02:15:11.433Z,970.24
2023-09-22T02:16:11.497Z,970.22
2023-09-22T02:17:11.389Z,970.23
2023-09-22T02:18:11.438Z,970.24
2023-09-22T02:19:11.384Z,970.26
2023-09-22T02:20:11.393Z,970.31
2023-09-22T02:21:11.360Z,970.35
2023-09-22T02:22:11.350Z,970.37
2023-09-22T02:23:11.325Z,970.37
2023-09-22T02:24:11.342Z,970.37
2023-09-22T02:25:11.307Z,970.34
2023-09-22T02:26:11.316Z,970.31
2023-09-22T02:27:11.280Z,970.29
2023-09-22T02:28:11.303Z,970.27
2023-09-22T02:29:11.265Z,970.25
2023-09-22T02:30:11.290Z,970.24
2023-09-22T02:31:11.279Z,970.23
2023-09-22T02:32:11.251Z,970.21
2023-09-22T02:33:11.215Z,970.19
2023-09-22T02:34:11.224Z,970.16
2023-09-22T02:35:11.192Z,970.11
2023-09-22T02:36:11.199Z,970.05
2023-09-22T02:37:11.192Z,970.02
2023-09-22T02:38:11.196Z,970.03
2023-09-22T02:39:11.149Z,970.05
2023-09-22T02:40:11.175Z,970.10
2023-09-22T02:41:11.121Z,970.17
2023-09-22T02:42:11.181Z,970.21
2023-09-22T02:43:11.108Z,970.24
2023-09-22T02:44:11.140Z,970.26
2023-09-22T02:45:11.118Z,970.24
2023-09-22T02:46:11.252Z,970.22
2023-09-22T02:47:11.223Z,970.19
2023-09-22T02:48:11.094Z,970.19
2023-09-22T02:49:11.030Z,970.22
2023-09-22T02:50:11.096Z,970.21
2023-09-22T02:51:11.043Z,970.20
2023-09-22T02:52:12.217Z,970.19
2023-09-22T02:53:10.998Z,970.19
2023-09-22T02:54:11.010Z,970.18
2023-09-22T02:55:10.991Z,970.18
2023-09-22T02:56:10.989Z,970.20
2023-09-22T02:57:10.954Z,970.24
2023-09-22T02:58:10.967Z,970.28
2023-09-22T02:59:10.923Z,970.32
2023-09-22T03:00:10.945Z,970.35
2023-09-22T03:01:10.985Z,970.36
2023-09-22T03:02:10.955Z,970.34
2023-09-22T03:03:10.925Z,970.31
2023-09-22T03:04:11.035Z,970.30
2023-09-22T03:05:10.872Z,970.30
2023-09-22T03:06:10.868Z,970.31
2023-09-22T03:07:10.834Z,970.34
2023-09-22T03:08:10.848Z,970.37
2023-09-22T03:09:10.823Z,970.39
2023-09-22T03:10:10.815Z,970.42
2023-09-22T03:11:13.812Z,970.43
2023-09-22T03:12:10.782Z,970.45
2023-09-22T03:13:10.825Z,970.46
2023-09-22T03:14:10.771Z,970.45
2023-09-22T03:15:11.123Z,970.42
2023-09-22T03:16:10.802Z,970.40
2023-09-22T03:17:10.740Z,970.41
2023-09-22T03:18:10.736Z,970.37
2023-09-22T03:19:10.750Z,970.33
2023-09-22T03:20:10.692Z,970.29
2023-09-22T03:21:10.698Z,970.26
2023-09-22T03:22:10.684Z,970.21
2023-09-22T03:23:10.701Z,970.18
2023-09-22T03:24:10.653Z,970.16
2023-09-22T03:25:10.837Z,970.13
2023-09-22T03:26:10.625Z,970.11
2023-09-22T03:27:10.636Z,970.11
2023-09-22T03:28:10.610Z,970.09
2023-09-22T03:29:10.640Z,970.07
2023-09-22T03:30:10.604Z,970.04
2023-09-22T03:31:10.741Z,970.02
2023-09-22T03:32:10.566Z,970.03
2023-09-22T03:33:10.608Z,970.05
2023-09-22T03:34:10.560Z,970.06
2023-09-22T03:35:10.564Z,970.06
2023-09-22T03:36:10.542Z,970.05
2023-09-22T03:37:10.616Z,970.02
2023-09-22T03:38:10.506Z,969.99
2023-09-22T03:39:10.507Z,969.93
2023-09-22T03:40:10.567Z,969.85
2023-09-22T03:41:10.501Z,969.77
2023-09-22T03:42:10.476Z,969.73
2023-09-22T03:43:10.477Z,969.75
2023-09-22T03:44:10.433Z,969.81
2023-09-22T03:45:10.434Z,969.89
2023-09-22T03:46:10.491Z,969.93
2023-09-22T03:47:10.412Z,969.93
2023-09-22T03:48:10.455Z,969.87
2023-09-22T03:49:10.401Z,969.83
2023-09-22T03:50:10.383Z,969.80
2023-09-22T03:51:10.396Z,969.81
2023-09-22T03:52:10.347Z,969.88
2023-09-22T03:53:10.419Z,969.98
2023-09-22T03:54:10.331Z,970.05
2023-09-22T03:55:10.338Z,970.09
2023-09-22T03:56:10.356Z,970.07
2023-09-22T03:57:10.319Z,970.05
2023-09-22T03:58:10.280Z,970.06
2023-09-22T03:59:10.300Z,970.10
2023-09-22T04:00:10.257Z,970.11
2023-09-22T04:01:10.531Z,970.10
2023-09-22T04:02:10.236Z,970.04
2023-09-22T04:03:10.300Z,969.95
2023-09-22T04:04:10.317Z,969.88
2023-09-22T04:05:10.225Z,969.85
2023-09-22T04:06:10.189Z,969.85
2023-09-22T04:07:10.218Z,969.86
2023-09-22T04:08:10.172Z,969.87
2023-09-22T04:09:10.172Z,969.88
2023-09-22T04:10:10.155Z,969.91
2023-09-22T04:11:10.149Z,969.92
2023-09-22T04:12:10.126Z,969.93
2023-09-22T04:13:10.143Z,969.97
2023-09-22T04:14:10.104Z,970.01
2023-09-22T04:15:10.105Z,970.05
2023-09-22T04:16:10.194Z,970.07
2023-09-22T04:17:10.169Z,970.08
2023-09-22T04:18:10.122Z,970.09
2023-09-22T04:19:10.177Z,970.10
2023-09-22T04:20:10.119Z,970.12
2023-09-22T04:21:10.074Z,970.11
2023-09-22T04:22:10.013Z,970.09
2023-09-22T04:23:10.034Z,970.10
2023-09-22T04:24:09.993Z,970.14
2023-09-22T04:25:10.042Z,970.17
2023-09-22T04:26:09.974Z,970.19
2023-09-22T04:27:10.004Z,970.17
2023-09-22T04:28:09.959Z,970.15
2023-09-22T04:29:09.977Z,970.14
2023-09-22T04:30:09.948Z,970.15
2023-09-22T04:31:10.006Z,970.19
2023-09-22T04:32:09.902Z,970.25
2023-09-22T04:33:09.959Z,970.31
2023-09-22T04:34:09.889Z,970.32
2023-09-22T04:35:09.886Z,970.30
2023-09-22T04:36:09.871Z,970.27
2023-09-22T04:37:09.946Z,970.27
2023-09-22T04:38:09.839Z,970.35
2023-09-22T04:39:09.841Z,970.40
2023-09-22T04:40:09.828Z,970.43
2023-09-22T04:41:09.843Z,970.49
2023-09-22T04:42:09.792Z,970.53
2023-09-22T04:43:10.025Z,970.54
2023-09-22T04:44:09.772Z,970.57
2023-09-22T04:45:09.798Z,970.62
2023-09-22T04:46:09.837Z,970.67
2023-09-22T04:47:09.726Z,970.72
2023-09-22T04:48:09.748Z,970.77
2023-09-22T04:49:09.818Z,970.79
2023-09-22T04:50:09.676Z,970.80
2023-09-22T04:51:09.673Z,970.83
2023-09-22T04:52:09.688Z,970.82
2023-09-22T04:53:09.656Z,970.83
2023-09-22T04:54:09.665Z,970.85
2023-09-22T04:55:09.686Z,970.88
2023-09-22T04:56:09.645Z,970.93
2023-09-22T04:57:09.612Z,971.01
2023-09-22T04:58:09.628Z,971.01
2023-09-22T04:59:09.623Z,971.03
2023-09-22T05:00:09.602Z,971.10
2023-09-22T05:01:09.885Z,971.13
2023-09-22T05:02:09.593Z,971.16
2023-09-22T05:03:09.738Z,971.15
2023-09-22T05:04:09.579Z,971.14
2023-09-22T05:05:09.505Z,971.15
2023-09-22T05:06:09.474Z,971.19
2023-09-22T05:07:09.535Z,971.18
2023-09-22T05:08:09.478Z,971.14
2023-09-22T05:09:09.465Z,971.15
2023-09-22T05:10:09.575Z,971.17
2023-09-22T05:11:09.456Z,971.18
2023-09-22T05:12:09.472Z,971.15
2023-09-22T05:13:09.482Z,971.09
2023-09-22T05:14:09.402Z,971.04
2023-09-22T05:15:09.416Z,970.99
2023-09-22T05:16:09.500Z,970.95
2023-09-22T05:17:09.387Z,970.86
2023-09-22T05:18:09.396Z,970.86
2023-09-22T05:19:09.404Z,970.92
2023-09-22T05:20:09.331Z,970.93
2023-09-22T05:21:09.341Z,970.93
2023-09-22T05:22:09.350Z,970.97
2023-09-22T05:23:09.316Z,970.99
2023-09-22T05:24:09.292Z,970.96
2023-09-22T05:25:09.371Z,970.92
2023-09-22T05:26:09.252Z,970.87
2023-09-22T05:27:09.313Z,970.86
2023-09-22T05:28:09.289Z,970.84
2023-09-22T05:29:09.248Z,970.84
2023-09-22T05:30:09.220Z,970.84
2023-09-22T05:31:13.538Z,970.81
2023-09-22T05:32:09.190Z,970.78
2023-09-22T05:33:09.524Z,970.73
2023-09-22T05:34:09.230Z,970.68
2023-09-22T05:35:09.188Z,970.63
2023-09-22T05:36:09.174Z,970.59
2023-09-22T05:37:09.159Z,970.61
2023-09-22T05:38:09.139Z,970.67
2023-09-22T05:39:09.172Z,970.74
2023-09-22T05:40:09.124Z,970.76
2023-09-22T05:41:09.143Z,970.74
2023-09-22T05:42:09.092Z,970.71
2023-09-22T05:43:09.182Z,970.70
2023-09-22T05:44:09.059Z,970.68
2023-09-22T05:45:09.084Z,970.64
2023-09-22T05:46:09.143Z,970.60
2023-09-22T05:47:09.043Z,970.57
2023-09-22T05:48:09.081Z,970.56
2023-09-22T05:49:09.035Z,970.58
2023-09-22T05:50:08.997Z,970.64
2023-09-22T05:51:09.008Z,970.73
2023-09-22T05:52:09.019Z,970.84
2023-09-22T05:53:09.009Z,970.92
2023-09-22T05:54:08.950Z,970.96
2023-09-22T05:55:09.017Z,970.99
2023-09-22T05:56:08.943Z,971.02
2023-09-22T05:57:08.937Z,971.05
2023-09-22T05:58:08.966Z,971.05
2023-09-22T05:59:08.922Z,971.02
2023-09-22T06:00:08.883Z,971.01
2023-09-22T06:01:08.986Z,971.03
2023-09-22T06:02:08.949Z,971.01
2023-09-22T06:03:08.903Z,970.99
2023-09-22T06:04:08.921Z,971.01
2023-09-22T06:05:08.876Z,971.06
2023-09-22T06:06:08.816Z,971.14
2023-09-22T06:07:08.868Z,971.22
2023-09-22T06:08:08.795Z,971.26
2023-09-22T06:09:08.822Z,971.28
2023-09-22T06:10:08.789Z,971.29
2023-09-22T06:11:08.806Z,971.31
2023-09-22T06:12:08.784Z,971.34
2023-09-22T06:13:08.808Z,971.38
2023-09-22T06:14:08.725Z,971.40
2023-09-22T06:15:08.757Z,971.42
2023-09-22T06:16:08.765Z,971.48
2023-09-22T06:17:08.710Z,971.52
2023-09-22T06:18:08.695Z,971.56
2023-09-22T06:19:08.709Z,971.59
2023-09-22T06:20:08.737Z,971.60
2023-09-22T06:21:08.691Z,971.62
2023-09-22T06:22:08.719Z,971.60
2023-09-22T06:23:08.654Z,971.60
2023-09-22T06:24:08.620Z,971.61
2023-09-22T06:25:08.656Z,971.61
2023-09-22T06:26:08.593Z,971.61
2023-09-22T06:27:08.634Z,971.62
2023-09-22T06:28:08.623Z,971.62
2023-09-22T06:29:08.603Z,971.60
2023-09-22T06:30:08.564Z,971.61
2023-09-22T06:31:08.616Z,971.61
2023-09-22T06:32:08.533Z,971.63
2023-09-22T06:33:08.617Z,971.65
2023-09-22T06:34:08.590Z,971.67
2023-09-22T06:35:08.561Z,971.70
2023-09-22T06:36:08.486Z,971.71
2023-09-22T06:37:08.573Z,971.73
2023-09-22T06:38:08.509Z,971.75
2023-09-22T06:39:08.498Z,971.79
2023-09-22T06:40:08.491Z,971.84
2023-09-22T06:41:08.481Z,971.85
2023-09-22T06:42:08.423Z,971.83
2023-09-22T06:43:20.735Z,971.83
2023-09-22T06:44:08.420Z,971.83
2023-09-22T06:45:08.418Z,971.86
2023-09-22T06:46:08.426Z,971.85
2023-09-22T06:47:08.485Z,971.86
2023-09-22T06:48:08.416Z,971.87
2023-09-22T06:49:08.409Z,971.89
2023-09-22T06:50:08.363Z,971.92
2023-09-22T06:51:08.334Z,971.95
2023-09-22T06:52:08.398Z,971.96
2023-09-22T06:53:08.321Z,971.97
2023-09-22T06:54:08.304Z,972.00
2023-09-22T06:55:08.369Z,972.00
2023-09-22T06:56:08.430Z,972.02
2023-09-22T06:57:08.275Z,971.99
2023-09-22T06:58:08.324Z,971.98
2023-09-22T06:59:08.257Z,971.97
2023-09-22T07:00:08.237Z,971.96
2023-09-22T07:01:08.308Z,971.95
2023-09-22T07:02:08.262Z,971.94
2023-09-22T07:03:08.287Z,971.97
2023-09-22T07:04:08.289Z,971.99
2023-09-22T07:05:08.180Z,972.01
2023-09-22T07:06:08.167Z,972.04
2023-09-22T07:07:08.244Z,972.08
2023-09-22T07:08:08.142Z,972.12
2023-09-22T07:09:08.150Z,972.17
2023-09-22T07:10:08.169Z,972.19
2023-09-22T07:11:08.140Z,972.19
2023-09-22T07:12:08.108Z,972.19
2023-09-22T07:13:08.172Z,972.20
2023-09-22T07:14:08.081Z,972.22
2023-09-22T07:15:08.117Z,972.22
2023-09-22T07:16:08.164Z,972.24
2023-09-22T07:17:08.173Z,972.26
2023-09-22T07:18:08.134Z,972.28
2023-09-22T07:19:08.087Z,972.30
2023-09-22T07:20:08.022Z,972.33
2023-09-22T07:21:08.088Z,972.36
2023-09-22T07:22:08.029Z,972.38
2023-09-22T07:23:08.014Z,972.42
2023-09-22T07:24:07.996Z,972.45
2023-09-22T07:25:08.070Z,972.46
2023-09-22T07:26:08.658Z,972.48
2023-09-22T07:27:08.004Z,972.49
2023-09-22T07:28:07.966Z,972.48
2023-09-22T07:29:07.929Z,972.47
2023-09-22T07:30:07.926Z,972.45
2023-09-22T07:31:07.997Z,972.44
2023-09-22T07:32:07.921Z,972.44
2023-09-22T07:33:07.878Z,972.41
2023-09-22T07:34:07.908Z,972.39
2023-09-22T07:35:07.850Z,972.37
2023-09-22T07:36:07.843Z,972.38
2023-09-22T07:37:18.978Z,972.42
2023-09-22T07:38:07.841Z,972.46
2023-09-22T07:39:07.817Z,972.52
2023-09-22T07:40:07.865Z,972.57
2023-09-22T07:41:07.817Z,972.59
2023-09-22T07:42:07.798Z,972.62
2023-09-22T07:43:07.780Z,972.66
2023-09-22T07:44:07.755Z,972.69
2023-09-22T07:45:07.755Z,972.70
2023-09-22T07:46:08.134Z,972.72
2023-09-22T07:47:07.722Z,972.71
2023-09-22T07:48:07.773Z,972.75
2023-09-22T07:49:07.716Z,972.80
2023-09-22T07:50:07.803Z,972.85
2023-09-22T07:51:07.689Z,972.91
2023-09-22T07:52:07.719Z,972.95
2023-09-22T07:53:07.640Z,972.96
2023-09-22T07:54:07.650Z,972.97
2023-09-22T07:55:07.762Z,972.96
2023-09-22T07:56:07.938Z,972.94
2023-09-22T07:57:07.603Z,972.92
2023-09-22T07:58:07.659Z,972.93
2023-09-22T07:59:13.399Z,972.92
2023-09-22T08:00:07.589Z,972.95
2023-09-22T08:01:07.573Z,972.98
2023-09-22T08:02:07.595Z,972.99
2023-09-22T08:03:07.597Z,973.00
2023-09-22T08:04:07.591Z,972.99
2023-09-22T08:05:07.531Z,972.95
2023-09-22T08:06:07.538Z,972.92
2023-09-22T08:07:07.504Z,972.91
2023-09-22T08:08:07.499Z,972.94
2023-09-22T08:09:07.489Z,972.95
2023-09-22T08:10:07.996Z,972.97
2023-09-22T08:11:07.467Z,972.96
2023-09-22T08:12:07.470Z,972.94
2023-09-22T08:13:07.442Z,972.94
2023-09-22T08:14:07.430Z,972.89
2023-09-22T08:15:07.400Z,972.86
2023-09-22T08:16:07.477Z,972.85
2023-09-22T08:17:07.398Z,972.84
2023-09-22T08:18:07.628Z,972.81
2023-09-22T08:19:07.412Z,972.78
2023-09-22T08:20:07.378Z,972.77
2023-09-22T08:21:07.336Z,972.75
2023-09-22T08:22:07.424Z,972.73
2023-09-22T08:23:07.323Z,972.71
2023-09-22T08:24:07.338Z,972.70
2023-09-22T08:25:07.390Z,972.69
2023-09-22T08:26:07.313Z,972.69
2023-09-22T08:27:07.277Z,972.69
2023-09-22T08:28:07.352Z,972.69
2023-09-22T08:29:07.257Z,972.70
2023-09-22T08:30:07.270Z,972.69
2023-09-22T08:31:07.247Z,972.68
2023-09-22T08:32:10.054Z,972.66
2023-09-22T08:33:07.227Z,972.65
2023-09-22T08:34:07.290Z,972.65
2023-09-22T08:35:07.199Z,972.65
2023-09-22T08:36:07.210Z,972.63
2023-09-22T08:37:07.204Z,972.61
2023-09-22T08:38:07.181Z,972.60
2023-09-22T08:39:07.147Z,972.59
2023-09-22T08:40:07.172Z,972.60
2023-09-22T08:41:07.111Z,972.59
2023-09-22T08:42:07.138Z,972.58
2023-09-22T08:43:07.312Z,972.58
2023-09-22T08:44:07.114Z,972.57
2023-09-22T08:45:07.091Z,972.58
2023-09-22T08:46:07.160Z,972.60
2023-09-22T08:47:07.173Z,972.62
2023-09-22T08:48:07.219Z,972.62
2023-09-22T08:49:07.074Z,972.65
2023-09-22T08:50:07.062Z,972.65
2023-09-22T08:51:07.014Z,972.66
2023-09-22T08:52:07.057Z,972.63
2023-09-22T08:53:06.989Z,972.61
2023-09-22T08:54:06.993Z,972.54
2023-09-22T08:55:07.034Z,972.51
2023-09-22T08:56:07.007Z,972.48
2023-09-22T08:57:06.947Z,972.48
2023-09-22T08:58:07.071Z,972.46
2023-09-22T08:59:06.911Z,972.46
2023-09-22T09:00:06.925Z,972.44
2023-09-22T09:01:06.969Z,972.43
2023-09-22T09:02:07.005Z,972.40
2023-09-22T09:03:06.953Z,972.39
2023-09-22T09:04:06.982Z,972.37
2023-09-22T09:05:06.859Z,972.38
2023-09-22T09:06:06.869Z,972.39
2023-09-22T09:07:06.847Z,972.44
2023-09-22T09:08:06.830Z,972.48
2023-09-22T09:09:06.808Z,972.52
2023-09-22T09:10:06.859Z,972.55
2023-09-22T09:11:06.782Z,972.56
2023-09-22T09:12:06.801Z,972.58
2023-09-22T09:13:06.821Z,972.60
2023-09-22T09:14:06.767Z,972.63
2023-09-22T09:15:06.737Z,972.63
2023-09-22T09:16:06.803Z,972.65
2023-09-22T09:17:06.810Z,972.67
2023-09-22T09:18:06.761Z,972.67
2023-09-22T09:19:06.821Z,972.68
2023-09-22T09:20:06.721Z,972.70
2023-09-22T09:21:06.733Z,972.71
2023-09-22T09:22:06.758Z,972.76
2023-09-22T09:23:06.677Z,972.73
2023-09-22T09:24:06.676Z,972.74
2023-09-22T09:25:06.644Z,972.72
2023-09-22T09:26:06.637Z,972.71
2023-09-22T09:27:06.617Z,972.71
2023-09-22T09:28:06.645Z,972.76
2023-09-22T09:29:06.585Z,972.81
2023-09-22T09:30:06.591Z,972.88
2023-09-22T09:31:06.607Z,972.89
2023-09-22T09:32:06.628Z,972.93
2023-09-22T09:33:06.584Z,972.99
2023-09-22T09:34:06.571Z,973.01
2023-09-22T09:35:06.536Z,973.04
2023-09-22T09:36:06.526Z,973.10
2023-09-22T09:37:06.530Z,973.10
2023-09-22T09:38:06.525Z,973.15
2023-09-22T09:39:06.542Z,973.13
2023-09-22T09:40:06.551Z,973.12
2023-09-22T09:41:06.476Z,973.06
2023-09-22T09:42:06.481Z,973.08
2023-09-22T09:43:06.471Z,973.04
2023-09-22T09:44:06.453Z,973.06
2023-09-22T09:45:06.406Z,973.04
2023-09-22T09:46:06.455Z,973.05
2023-09-22T09:47:06.413Z,973.06
2023-09-22T09:48:06.468Z,973.03
2023-09-22T09:49:06.464Z,973.00
2023-09-22T09:50:06.395Z,972.94
2023-09-22T09:51:06.340Z,972.90
2023-09-22T09:52:06.388Z,972.87
2023-09-22T09:53:06.322Z,972.86
2023-09-22T09:54:06.340Z,972.86
2023-09-22T09:55:06.367Z,972.86
2023-09-22T09:56:06.322Z,972.85
2023-09-22T09:57:06.280Z,972.86
2023-09-22T09:58:06.315Z,972.86
2023-09-22T09:59:07.140Z,972.90
2023-09-22T10:00:06.299Z,972.90
2023-09-22T10:01:06.382Z,972.89
2023-09-22T10:02:06.323Z,972.86
2023-09-22T10:03:06.237Z,972.81
2023-09-22T10:04:06.345Z,972.72
2023-09-22T10:05:06.188Z,972.66
2023-09-22T10:06:06.212Z,972.58
2023-09-22T10:07:06.206Z,972.55
2023-09-22T10:08:06.206Z,972.55
2023-09-22T10:09:06.147Z,972.58
2023-09-22T10:10:06.286Z,972.63
2023-09-22T10:11:06.124Z,972.68
2023-09-22T10:12:07.146Z,972.69
2023-09-22T10:13:06.131Z,972.70
2023-09-22T10:14:06.130Z,972.71
2023-09-22T10:15:06.089Z,972.72
2023-09-22T10:16:06.279Z,972.72
2023-09-22T10:17:06.119Z,972.75
2023-09-22T10:18:06.119Z,972.79
2023-09-22T10:19:06.069Z,972.83
2023-09-22T10:20:06.049Z,972.89
2023-09-22T10:21:06.026Z,972.91
2023-09-22T10:22:06.054Z,972.92
2023-09-22T10:23:05.992Z,972.97
2023-09-22T10:24:06.003Z,972.98
2023-09-22T10:25:05.973Z,973.00
2023-09-22T10:26:06.089Z,972.99
2023-09-22T10:27:05.973Z,972.98
2023-09-22T10:28:10.153Z,972.97
2023-09-22T10:29:05.931Z,972.96
2023-09-22T10:30:05.956Z,972.94
2023-09-22T10:31:06.020Z,972.94
2023-09-22T10:32:05.948Z,972.90
2023-09-22T10:33:05.913Z,972.96
2023-09-22T10:34:05.905Z,972.87
2023-09-22T10:35:05.867Z,972.88
2023-09-22T10:36:05.875Z,972.93
2023-09-22T10:37:05.870Z,972.89
2023-09-22T10:38:07.804Z,972.87
2023-09-22T10:39:05.817Z,972.84
2023-09-22T10:40:05.880Z,972.82
2023-09-22T10:41:05.847Z,972.83
2023-09-22T10:42:05.811Z,972.85
2023-09-22T10:43:05.860Z,972.87
2023-09-22T10:44:05.793Z,972.88
2023-09-22T10:45:05.749Z,972.87
2023-09-22T10:46:05.868Z,972.87
2023-09-22T10:47:05.790Z,972.86
2023-09-22T10:48:05.842Z,972.87
2023-09-22T10:49:05.780Z,972.80
2023-09-22T10:50:05.740Z,972.75
2023-09-22T10:51:05.711Z,972.71
2023-09-22T10:52:05.740Z,972.72
2023-09-22T10:53:05.702Z,972.74
2023-09-22T10:54:05.686Z,972.79
2023-09-22T10:55:05.646Z,972.81
2023-09-22T10:56:05.723Z,972.80
2023-09-22T10:57:05.621Z,972.81
2023-09-22T10:58:05.642Z,972.85
2023-09-22T10:59:05.618Z,972.86
2023-09-22T11:00:05.614Z,972.90
2023-09-22T11:01:05.766Z,972.88
2023-09-22T11:02:05.653Z,972.92
2023-09-22T11:03:05.587Z,972.95
2023-09-22T11:04:05.599Z,972.88
2023-09-22T11:05:05.650Z,972.88
2023-09-22T11:06:05.578Z,972.87
2023-09-22T11:07:05.503Z,972.86
2023-09-22T11:08:05.555Z,972.89
2023-09-22T11:09:05.490Z,972.92
2023-09-22T11:10:05.483Z,972.96
2023-09-22T11:11:05.543Z,973.04
2023-09-22T11:12:05.484Z,973.05
2023-09-22T11:13:05.450Z,973.12
2023-09-22T11:14:05.462Z,973.09
2023-09-22T11:15:05.419Z,973.12
2023-09-22T11:16:05.498Z,973.11
2023-09-22T11:17:05.444Z,973.20
2023-09-22T11:18:05.441Z,973.26
2023-09-22T11:19:05.403Z,973.24
2023-09-22T11:20:05.410Z,973.26
2023-09-22T11:21:05.365Z,973.25
2023-09-22T11:22:05.359Z,973.21
2023-09-22T11:23:05.335Z,973.19
2023-09-22T11:24:05.337Z,973.12
2023-09-22T11:25:05.314Z,973.07
2023-09-22T11:26:05.339Z,973.08
2023-09-22T11:27:05.283Z,973.11
2023-09-22T11:28:05.305Z,973.11
2023-09-22T11:29:05.267Z,973.06
2023-09-22T11:30:05.285Z,973.01
2023-09-22T11:31:05.325Z,972.98
2023-09-22T11:32:05.312Z,972.95
2023-09-22T11:33:05.241Z,972.95
2023-09-22T11:34:05.395Z,972.95
2023-09-22T11:35:23.634Z,972.95
2023-09-22T11:36:05.202Z,972.86
2023-09-22T11:37:05.170Z,972.90
2023-09-22T11:38:05.186Z,972.92
2023-09-22T11:39:05.165Z,972.90
2023-09-22T11:40:05.160Z,972.92
2023-09-22T11:41:05.150Z,972.93
2023-09-22T11:42:05.222Z,972.95
2023-09-22T11:43:05.109Z,972.95
2023-09-22T11:44:05.107Z,972.96
2023-09-22T11:45:05.101Z,972.97
2023-09-22T11:46:05.198Z,972.97
2023-09-22T11:47:05.151Z,973.01
2023-09-22T11:48:05.165Z,973.03
2023-09-22T11:49:05.072Z,973.04
2023-09-22T11:50:05.023Z,973.03
2023-09-22T11:51:05.039Z,973.02
2023-09-22T11:52:05.035Z,973.06
2023-09-22T11:53:05.009Z,972.99
2023-09-22T11:54:05.000Z,972.98
2023-09-22T11:55:05.010Z,972.98
2023-09-22T11:56:04.972Z,972.97
2023-09-22T11:57:04.969Z,973.02
2023-09-22T11:58:04.958Z,973.00
2023-09-22T11:59:04.960Z,973.02
2023-09-22T12:00:04.920Z,973.03
2023-09-22T12:01:04.935Z,973.02
2023-09-22T12:02:06.746Z,973.02
2023-09-22T12:03:04.954Z,973.07
2023-09-22T12:04:04.946Z,973.03
2023-09-22T12:05:04.898Z,973.05
2023-09-22T12:06:04.849Z,973.02
2023-09-22T12:07:04.873Z,973.02
2023-09-22T12:08:04.837Z,972.99
2023-09-22T12:09:04.849Z,972.97
2023-09-22T12:10:04.812Z,973.00
2023-09-22T12:11:04.814Z,973.02
2023-09-22T12:12:04.870Z,973.04
2023-09-22T12:13:04.805Z,973.06
2023-09-22T12:14:04.814Z,973.01
2023-09-22T12:15:04.787Z,973.03
2023-09-22T12:16:04.816Z,973.05
2023-09-22T12:17:04.811Z,973.12
2023-09-22T12:18:04.813Z,973.10
2023-09-22T12:19:04.795Z,973.05
2023-09-22T12:20:04.775Z,973.00
2023-09-22T12:21:04.805Z,972.99
2023-09-22T12:22:04.905Z,972.96
2023-09-22T12:23:04.904Z,972.97
2023-09-22T12:24:04.868Z,972.99
2023-09-22T12:25:04.883Z,973.01
2023-09-22T12:26:04.841Z,973.04
2023-09-22T12:27:04.862Z,973.04
2023-09-22T12:28:04.746Z,973.06